createdAt,value
2022-11-28T00:01:29.255Z,7.17
2022-11-28T00:03:56.187Z,7.67
2022-11-28T00:06:23.158Z,7.83
2022-11-28T00:08:50.395Z,7.63
2022-11-28T00:11:18.008Z,6.63
2022-11-28T00:13:45.481Z,10.07
2022-11-28T00:16:22.312Z,8.13
2022-11-28T00:18:51.434Z,10.80
2022-11-28T00:21:19.119Z,9.23
2022-11-28T00:23:47.143Z,7.27
2022-11-28T00:26:18.522Z,6.77
2022-11-28T00:28:45.419Z,6.23
2022-11-28T00:31:16.479Z,6.13
2022-11-28T00:33:43.293Z,7.10
2022-11-28T00:36:11.657Z,6.50
2022-11-28T00:38:38.736Z,7.33
2022-11-28T00:41:11.277Z,8.13
2022-11-28T00:43:38.195Z,8.33
2022-11-28T00:46:05.186Z,12.03
2022-11-28T00:48:33.624Z,7.17
2022-11-28T00:51:09.349Z,7.03
2022-11-28T00:53:37.293Z,5.97
2022-11-28T00:56:06.393Z,5.80
2022-11-28T00:58:34.992Z,6.47
2022-11-28T01:01:11.599Z,5.13
2022-11-28T01:03:39.482Z,5.03
2022-11-28T01:06:07.517Z,4.67
2022-11-28T01:08:34.871Z,5.17
2022-11-28T01:11:01.869Z,4.60
2022-11-28T01:13:28.889Z,4.47
2022-11-28T01:15:55.780Z,3.90
2022-11-28T01:18:22.568Z,4.17
2022-11-28T01:20:49.195Z,4.27
2022-11-28T01:23:16.930Z,4.00
2022-11-28T01:25:43.588Z,4.20
2022-11-28T01:28:10.365Z,4.07
2022-11-28T01:30:37.240Z,5.50
2022-11-28T01:33:04.008Z,4.13
2022-11-28T01:35:30.631Z,4.70
2022-11-28T01:37:57.662Z,4.07
2022-11-28T01:40:24.318Z,5.33
2022-11-28T01:42:51.022Z,4.50
2022-11-28T01:45:24.601Z,4.43
2022-11-28T01:47:54.647Z,4.60
2022-11-28T01:50:23.193Z,4.73
2022-11-28T01:52:53.573Z,4.40
2022-11-28T01:55:24.904Z,5.47
2022-11-28T01:57:54.604Z,4.83
2022-11-28T02:00:22.222Z,4.93
2022-11-28T02:02:50.517Z,4.70
2022-11-28T02:05:19.050Z,4.93
2022-11-28T02:07:47.113Z,4.80
2022-11-28T02:10:20.595Z,5.87
2022-11-28T02:13:12.303Z,5.07
2022-11-28T02:16:07.132Z,4.70
2022-11-28T02:19:09.206Z,5.55
2022-11-28T02:21:52.743Z,4.90
2022-11-28T02:24:51.908Z,4.40
2022-11-28T02:27:38.433Z,4.43
2022-11-28T02:30:55.725Z,4.43
2022-11-28T02:33:28.270Z,4.67
2022-11-28T02:36:07.747Z,5.23
2022-11-28T02:38:52.876Z,4.97
2022-11-28T02:41:43.230Z,5.32
2022-11-28T02:44:18.343Z,4.40
2022-11-28T02:47:03.228Z,4.53
2022-11-28T02:49:41.236Z,4.35
2022-11-28T02:52:19.607Z,4.23
2022-11-28T02:54:48.800Z,5.57
2022-11-28T02:57:15.623Z,5.70
2022-11-28T02:59:42.310Z,4.93
2022-11-28T03:02:31.800Z,4.50
2022-11-28T03:05:34.768Z,4.43
2022-11-28T03:08:13.395Z,5.57
2022-11-28T03:10:46.121Z,5.97
2022-11-28T03:13:28.620Z,6.00
2022-11-28T03:16:20.061Z,6.57
2022-11-28T03:19:04.805Z,6.20
2022-11-28T03:21:31.526Z,17.90
2022-11-28T03:24:03.200Z,19.13
2022-11-28T03:26:54.154Z,11.40
2022-11-28T03:29:34.574Z,11.13
2022-11-28T03:32:08.304Z,17.80
2022-11-28T03:34:40.995Z,6.07
2022-11-28T03:37:13.543Z,5.50
2022-11-28T03:39:49.027Z,6.67
2022-11-28T03:42:25.024Z,6.40
2022-11-28T03:45:09.600Z,5.20
2022-11-28T03:47:42.356Z,5.75
2022-11-28T03:50:19.767Z,7.27
2022-11-28T03:52:54.661Z,5.03
2022-11-28T03:57:59.940Z,14.13
2022-11-28T04:00:27.266Z,8.23
2022-11-28T04:03:21.197Z,9.93
2022-11-28T04:05:54.177Z,6.43
2022-11-28T04:08:48.917Z,7.23
2022-11-28T04:11:29.134Z,7.68
2022-11-28T04:14:13.246Z,7.17
2022-11-28T04:16:54.112Z,6.87
2022-11-28T04:19:50.531Z,12.63
2022-11-28T04:22:21.711Z,7.00
2022-11-28T04:25:11.095Z,7.47
2022-11-28T04:27:41.695Z,6.67
2022-11-28T04:30:09.963Z,9.80
2022-11-28T04:32:40.562Z,8.40
2022-11-28T04:35:12.253Z,8.80
2022-11-28T04:37:42.269Z,9.33
2022-11-28T04:40:11.981Z,14.77
2022-11-28T04:43:02.730Z,15.00
2022-11-28T04:45:36.212Z,16.03
2022-11-28T04:48:03.416Z,15.77
2022-11-28T04:50:42.459Z,11.50
2022-11-28T04:53:35.490Z,11.10
2022-11-28T04:56:08.187Z,17.40
2022-11-28T04:58:40.068Z,13.13
2022-11-28T05:01:10.970Z,10.93
2022-11-28T05:03:42.610Z,11.50
2022-11-28T05:06:09.952Z,16.80
2022-11-28T05:08:36.868Z,23.47
2022-11-28T05:11:03.645Z,14.80
2022-11-28T05:13:30.323Z,16.40
2022-11-28T05:16:00.808Z,18.70
2022-11-28T05:18:27.537Z,16.20
2022-11-28T05:20:54.895Z,16.00
2022-11-28T05:23:21.583Z,18.63
2022-11-28T05:25:48.228Z,34.67
2022-11-28T05:28:14.907Z,26.27
2022-11-28T05:30:41.592Z,22.07
2022-11-28T05:33:08.316Z,15.87
2022-11-28T05:35:34.974Z,18.77
2022-11-28T05:38:01.704Z,22.83
2022-11-28T05:40:28.460Z,19.77
2022-11-28T05:42:55.239Z,17.37
2022-11-28T05:45:21.984Z,16.43
2022-11-28T05:47:48.719Z,13.97
2022-11-28T05:50:15.613Z,15.03
2022-11-28T05:52:42.297Z,13.03
2022-11-28T05:55:09.543Z,23.20
2022-11-28T05:57:36.268Z,18.87
2022-11-28T06:00:04.166Z,22.57
2022-11-28T06:02:30.976Z,28.43
2022-11-28T06:04:57.746Z,27.57
2022-11-28T06:07:24.495Z,28.70
2022-11-28T06:09:51.296Z,27.70
2022-11-28T06:12:17.948Z,28.43
2022-11-28T06:14:44.670Z,55.47
2022-11-28T06:17:11.501Z,27.70
2022-11-28T06:19:38.333Z,23.00
2022-11-28T06:22:05.591Z,21.63
2022-11-28T06:24:32.273Z,24.80
2022-11-28T06:26:59.013Z,24.33
2022-11-28T06:29:25.625Z,19.30
2022-11-28T06:31:52.434Z,21.50
2022-11-28T06:34:19.163Z,19.77
2022-11-28T06:36:45.941Z,26.17
2022-11-28T06:39:15.439Z,21.93
2022-11-28T06:41:43.371Z,23.60
2022-11-28T06:44:14.448Z,22.33
2022-11-28T06:46:41.913Z,25.23
2022-11-28T06:49:12.167Z,22.13
2022-11-28T06:51:40.504Z,27.33
2022-11-28T06:54:07.584Z,28.43
2022-11-28T06:56:34.350Z,29.90
2022-11-28T06:59:01.340Z,19.07
2022-11-28T07:01:31.305Z,22.63
2022-11-28T07:03:58.162Z,25.93
2022-11-28T07:06:26.314Z,23.97
2022-11-28T07:08:53.940Z,24.03
2022-11-28T07:11:24.654Z,24.07
2022-11-28T07:13:53.960Z,23.37
2022-11-28T07:16:26.658Z,20.83
2022-11-28T07:18:54.266Z,19.77
2022-11-28T07:21:21.723Z,21.87
2022-11-28T07:23:48.873Z,26.73
2022-11-28T07:26:18.326Z,23.83
2022-11-28T07:28:46.139Z,18.77
2022-11-28T07:31:22.003Z,22.17
2022-11-28T07:33:50.796Z,21.10
2022-11-28T07:36:23.251Z,19.37
2022-11-28T07:38:51.803Z,19.93
2022-11-28T07:41:23.680Z,19.00
2022-11-28T07:44:03.918Z,18.77
2022-11-28T07:46:32.287Z,20.17
2022-11-28T07:48:59.988Z,18.37
2022-11-28T07:51:29.889Z,12.60
2022-11-28T07:53:56.948Z,12.93
2022-11-28T07:56:35.146Z,15.60
2022-11-28T07:59:07.455Z,15.53
2022-11-28T08:01:36.299Z,17.37
2022-11-28T08:04:06.457Z,21.73
2022-11-28T08:06:37.794Z,20.50
2022-11-28T08:09:04.642Z,21.70
2022-11-28T08:11:32.697Z,21.03
2022-11-28T08:13:59.969Z,21.40
2022-11-28T08:16:28.938Z,22.47
2022-11-28T08:18:56.570Z,23.70
2022-11-28T08:21:26.421Z,25.63
2022-11-28T08:23:54.701Z,34.67
2022-11-28T08:26:28.965Z,32.10
2022-11-28T08:28:56.272Z,35.75
2022-11-28T08:31:26.514Z,36.33
2022-11-28T08:33:57.048Z,33.03
2022-11-28T08:36:24.154Z,36.53
2022-11-28T08:39:03.903Z,48.40
2022-11-28T08:41:38.491Z,39.10
2022-11-28T08:44:05.267Z,45.33
2022-11-28T08:46:32.712Z,45.13
2022-11-28T08:49:04.226Z,37.83
2022-11-28T08:51:31.335Z,40.10
2022-11-28T08:53:59.724Z,41.53
2022-11-28T08:56:27.254Z,35.60
2022-11-28T08:58:54.981Z,35.60
2022-11-28T09:01:24.371Z,40.63
2022-11-28T09:03:51.820Z,41.10
2022-11-28T09:06:20.591Z,35.33
2022-11-28T09:08:48.358Z,40.90
2022-11-28T09:11:17.706Z,44.90
2022-11-28T09:13:44.954Z,46.40
2022-11-28T09:16:12.321Z,31.73
2022-11-28T09:18:39.073Z,33.20
2022-11-28T09:21:11.845Z,34.43
2022-11-28T09:23:41.021Z,47.23
2022-11-28T09:26:12.493Z,45.17
2022-11-28T09:28:39.196Z,37.23
2022-11-28T09:31:07.757Z,45.57
2022-11-28T09:33:35.786Z,41.27
2022-11-28T09:36:08.197Z,32.30
2022-11-28T09:38:35.546Z,34.93
2022-11-28T09:41:03.684Z,36.30
2022-11-28T09:43:38.484Z,22.63
2022-11-28T09:46:12.123Z,19.60
2022-11-28T09:48:45.142Z,16.97
2022-11-28T09:51:42.563Z,18.40
2022-11-28T09:54:28.050Z,15.40
2022-11-28T09:56:57.053Z,12.27
2022-11-28T09:59:27.307Z,14.57
2022-11-28T10:02:15.489Z,18.93
2022-11-28T10:05:36.086Z,25.13
2022-11-28T10:08:11.734Z,33.50
2022-11-28T10:10:49.539Z,14.50
2022-11-28T10:13:21.646Z,16.70
2022-11-28T10:15:57.266Z,18.57
2022-11-28T10:18:50.966Z,17.03
2022-11-28T10:21:28.351Z,33.20
2022-11-28T10:23:59.968Z,38.57
2022-11-28T10:26:26.614Z,16.47
2022-11-28T10:28:56.968Z,18.77
2022-11-28T10:31:39.085Z,13.80
2022-11-28T10:34:45.482Z,14.17
2022-11-28T10:37:28.217Z,11.20
2022-11-28T10:39:56.290Z,11.33
2022-11-28T10:42:46.217Z,11.83
2022-11-28T10:45:31.034Z,17.33
2022-11-28T10:48:39.000Z,15.27
2022-11-28T10:51:25.418Z,15.60
2022-11-28T10:54:10.967Z,11.95
2022-11-28T10:56:53.609Z,12.67
2022-11-28T10:59:36.210Z,13.93
2022-11-28T11:02:41.359Z,12.67
2022-11-28T11:05:13.677Z,16.90
2022-11-28T11:07:48.307Z,16.13
2022-11-28T11:10:16.648Z,18.00
2022-11-28T11:12:44.451Z,18.97
2022-11-28T11:15:22.522Z,17.67
2022-11-28T11:17:50.904Z,19.63
2022-11-28T11:20:23.708Z,16.30
2022-11-28T11:23:01.466Z,19.30
2022-11-28T11:25:31.478Z,15.70
2022-11-28T11:28:04.620Z,26.10
2022-11-28T11:30:38.917Z,15.37
2022-11-28T11:33:12.417Z,25.73
2022-11-28T11:35:47.156Z,23.03
2022-11-28T11:38:22.486Z,20.25
2022-11-28T11:40:50.625Z,13.47
2022-11-28T11:43:26.800Z,25.13
2022-11-28T11:46:11.537Z,22.27
2022-11-28T11:51:21.588Z,25.87
2022-11-28T11:53:48.819Z,13.03
2022-11-28T11:56:15.788Z,17.73
2022-11-28T11:58:52.242Z,14.87
2022-11-28T12:01:19.926Z,21.23
2022-11-28T12:04:08.521Z,15.27
2022-11-28T12:06:47.189Z,10.07
2022-11-28T12:09:23.242Z,9.10
2022-11-28T12:11:54.114Z,12.00
2022-11-28T12:14:31.598Z,12.57
2022-11-28T12:17:25.746Z,15.03
2022-11-28T12:19:59.558Z,13.93
2022-11-28T12:22:47.402Z,15.30
2022-11-28T12:25:20.103Z,21.83
2022-11-28T12:27:53.871Z,27.03
2022-11-28T12:30:39.187Z,25.80
2022-11-28T12:33:44.046Z,18.70
2022-11-28T12:36:20.781Z,15.27
2022-11-28T12:39:04.740Z,15.87
2022-11-28T12:42:02.555Z,13.70
2022-11-28T12:44:39.601Z,13.27
2022-11-28T12:47:30.944Z,14.23
2022-11-28T12:50:02.857Z,19.83
2022-11-28T12:53:07.727Z,19.83
2022-11-28T12:55:47.116Z,14.27
2022-11-28T12:58:13.804Z,16.73
2022-11-28T13:01:16.216Z,18.97
2022-11-28T13:04:13.018Z,23.47
2022-11-28T13:06:57.987Z,41.33
2022-11-28T13:09:49.161Z,54.25
2022-11-28T13:12:27.941Z,27.70
2022-11-28T13:15:03.174Z,26.60
2022-11-28T13:17:38.874Z,25.47
2022-11-28T13:20:18.382Z,32.43
2022-11-28T13:23:15.379Z,20.87
2022-11-28T13:26:09.433Z,31.70
2022-11-28T13:28:39.059Z,36.00
2022-11-28T13:31:18.041Z,68.80
2022-11-28T13:33:47.755Z,30.70
2022-11-28T13:39:40.266Z,35.73
2022-11-28T13:42:52.796Z,28.37
2022-11-28T13:45:32.386Z,18.40
2022-11-28T13:48:00.952Z,34.10
2022-11-28T13:50:39.844Z,24.23
2022-11-28T13:53:06.459Z,45.37
2022-11-28T13:55:59.057Z,17.40
2022-11-28T13:58:33.813Z,19.90
2022-11-28T14:01:05.718Z,25.70
2022-11-28T14:03:54.364Z,27.10
2022-11-28T14:06:24.541Z,22.17
2022-11-28T14:09:17.636Z,25.43
2022-11-28T14:11:56.362Z,21.80
2022-11-28T14:14:51.273Z,82.50
2022-11-28T14:18:31.478Z,36.17
2022-11-28T14:21:05.101Z,35.30
2022-11-28T14:23:44.066Z,34.03
2022-11-28T14:26:40.080Z,29.77
2022-11-28T14:29:18.996Z,32.93
2022-11-28T14:32:06.541Z,39.20
2022-11-28T14:34:44.679Z,40.13
2022-11-28T14:37:20.883Z,39.07
2022-11-28T14:39:49.531Z,46.70
2022-11-28T14:42:36.935Z,42.87
2022-11-28T14:45:41.897Z,36.73
2022-11-28T14:48:23.471Z,38.80
2022-11-28T14:50:59.075Z,41.10
2022-11-28T14:53:33.891Z,46.00
2022-11-28T14:56:13.836Z,45.90
2022-11-28T14:58:47.472Z,53.57
2022-11-28T15:01:24.251Z,54.30
2022-11-28T15:04:00.271Z,53.33
2022-11-28T15:06:35.458Z,54.57
2022-11-28T15:09:34.991Z,57.80
2022-11-28T15:12:05.080Z,59.73
2022-11-28T15:14:33.602Z,59.70
2022-11-28T15:17:05.995Z,63.10
2022-11-28T15:19:49.975Z,59.47
2022-11-28T15:22:40.072Z,58.57
2022-11-28T15:25:19.822Z,54.67
2022-11-28T15:27:46.527Z,73.37
2022-11-28T15:30:18.050Z,64.60
2022-11-28T15:32:45.452Z,59.53
2022-11-28T15:35:17.730Z,70.30
2022-11-28T15:37:54.432Z,66.67
2022-11-28T15:40:29.001Z,67.17
2022-11-28T15:42:55.752Z,78.03
2022-11-28T15:45:25.713Z,74.90
2022-11-28T15:47:54.322Z,80.97
2022-11-28T15:50:27.264Z,76.17
2022-11-28T15:53:02.926Z,82.90
2022-11-28T15:55:32.341Z,90.27
2022-11-28T15:58:17.808Z,85.70
2022-11-28T16:00:58.509Z,90.43
2022-11-28T16:03:30.323Z,98.73
2022-11-28T16:05:58.567Z,87.90
2022-11-28T16:08:31.796Z,81.50
2022-11-28T16:11:01.991Z,92.27
2022-11-28T16:13:31.479Z,93.90
2022-11-28T16:16:01.499Z,78.13
2022-11-28T16:18:29.317Z,82.17
2022-11-28T16:20:58.464Z,91.87
2022-11-28T16:23:33.042Z,96.73
2022-11-28T16:26:04.052Z,91.65
2022-11-28T16:28:40.944Z,93.50
2022-11-28T16:31:20.783Z,93.97
2022-11-28T16:33:48.059Z,98.60
2022-11-28T16:36:22.429Z,94.53
2022-11-28T16:38:52.221Z,98.10
2022-11-28T16:41:24.053Z,110.17
2022-11-28T16:44:22.327Z,99.33
2022-11-28T16:46:55.334Z,93.40
2022-11-28T16:49:31.312Z,119.23
2022-11-28T16:52:27.475Z,115.83
2022-11-28T16:54:55.692Z,116.43
2022-11-28T16:57:25.461Z,120.83
2022-11-28T16:59:54.316Z,111.90
2022-11-28T17:02:23.289Z,102.73
2022-11-28T17:04:52.024Z,98.80
2022-11-28T17:07:21.842Z,104.50
2022-11-28T17:09:51.763Z,92.50
2022-11-28T17:12:28.974Z,107.67
2022-11-28T17:14:56.178Z,98.43
2022-11-28T17:17:23.641Z,100.60
2022-11-28T17:19:50.980Z,111.87
2022-11-28T17:22:21.468Z,110.17
2022-11-28T17:24:49.887Z,112.10
2022-11-28T17:27:16.619Z,102.93
2022-11-28T17:29:44.056Z,117.27
2022-11-28T17:32:14.604Z,114.60
2022-11-28T17:34:42.299Z,112.87
2022-11-28T17:37:09.784Z,111.90
2022-11-28T17:39:36.485Z,109.47
2022-11-28T17:42:04.775Z,112.80
2022-11-28T17:44:37.674Z,116.67
2022-11-28T17:47:04.687Z,109.60
2022-11-28T17:49:31.715Z,118.03
2022-11-28T17:51:58.651Z,115.50
2022-11-28T17:54:26.797Z,116.47
2022-11-28T17:56:54.327Z,126.37
2022-11-28T17:59:23.683Z,126.83
2022-11-28T18:01:50.682Z,143.70
2022-11-28T18:04:17.966Z,139.63
2022-11-28T18:06:48.444Z,124.13
2022-11-28T18:09:15.779Z,109.37
2022-11-28T18:11:43.150Z,115.43
2022-11-28T18:14:10.075Z,110.17
2022-11-28T18:16:37.453Z,102.40
2022-11-28T18:19:04.283Z,104.77
2022-11-28T18:21:31.826Z,112.77
2022-11-28T18:23:58.572Z,119.33
2022-11-28T18:26:27.850Z,130.60
2022-11-28T18:28:54.878Z,128.23
2022-11-28T18:31:24.768Z,122.37
2022-11-28T18:33:55.117Z,128.60
2022-11-28T18:36:26.508Z,130.73
2022-11-28T18:39:02.933Z,132.93
2022-11-28T18:41:30.421Z,128.30
2022-11-28T18:43:58.996Z,110.03
2022-11-28T18:46:27.242Z,86.20
2022-11-28T18:48:53.986Z,101.77
2022-11-28T18:51:29.164Z,100.30
2022-11-28T18:53:56.821Z,100.60
2022-11-28T18:56:24.850Z,96.40
2022-11-28T18:58:53.576Z,99.10
2022-11-28T19:01:28.976Z,95.93
2022-11-28T19:04:06.212Z,97.73
2022-11-28T19:06:35.411Z,93.67
2022-11-28T19:09:04.573Z,80.10
2022-11-28T19:11:31.383Z,61.63
2022-11-28T19:13:58.648Z,60.17
2022-11-28T19:16:28.512Z,59.60
2022-11-28T19:18:55.942Z,63.00
2022-11-28T19:21:25.818Z,69.57
2022-11-28T19:23:54.953Z,90.17
2022-11-28T19:26:23.875Z,112.10
2022-11-28T19:28:50.692Z,101.10
2022-11-28T19:31:23.031Z,98.23
2022-11-28T19:34:10.134Z,107.93
2022-11-28T19:36:41.016Z,108.73
2022-11-28T19:39:13.311Z,112.00
2022-11-28T19:41:40.327Z,99.93
2022-11-28T19:44:07.100Z,107.17
2022-11-28T19:46:35.652Z,100.47
2022-11-28T19:49:03.944Z,103.83
2022-11-28T19:51:31.075Z,98.97
2022-11-28T19:54:03.105Z,105.07
2022-11-28T19:56:31.449Z,100.13
2022-11-28T19:58:58.457Z,112.67
2022-11-28T20:01:26.277Z,118.30
2022-11-28T20:03:53.324Z,113.60
2022-11-28T20:06:24.312Z,121.10
2022-11-28T20:08:53.111Z,109.17
2022-11-28T20:11:29.050Z,91.73
2022-11-28T20:13:58.524Z,93.90
2022-11-28T20:16:25.472Z,93.60
2022-11-28T20:18:52.264Z,102.67
2022-11-28T20:21:20.740Z,101.60
2022-11-28T20:23:54.860Z,99.13
2022-11-28T20:26:23.806Z,93.85
2022-11-28T20:28:50.810Z,95.60
2022-11-28T20:31:23.276Z,101.77
2022-11-28T20:33:51.331Z,107.67
2022-11-28T20:36:19.960Z,112.23
2022-11-28T20:38:47.755Z,114.03
2022-11-28T20:41:15.559Z,107.77
2022-11-28T20:43:43.349Z,97.67
2022-11-28T20:46:22.898Z,108.03
2022-11-28T20:48:50.621Z,111.97
2022-11-28T20:51:22.980Z,113.77
2022-11-28T20:53:49.773Z,117.17
2022-11-28T20:56:19.971Z,113.73
2022-11-28T20:58:47.316Z,114.63
2022-11-28T21:01:23.131Z,119.20
2022-11-28T21:03:51.640Z,118.90
2022-11-28T21:06:19.534Z,129.40
2022-11-28T21:08:46.483Z,126.37
2022-11-28T21:11:36.968Z,113.43
2022-11-28T21:14:07.431Z,105.60
2022-11-28T21:16:34.781Z,107.83
2022-11-28T21:19:11.435Z,105.60
2022-11-28T21:21:40.251Z,116.67
2022-11-28T21:24:10.434Z,107.93
2022-11-28T21:26:41.414Z,109.90
2022-11-28T21:29:11.062Z,108.50
2022-11-28T21:31:42.488Z,98.80
2022-11-28T21:34:19.645Z,102.80
2022-11-28T21:36:46.606Z,101.87
2022-11-28T21:39:15.740Z,97.40
2022-11-28T21:41:42.700Z,98.57
2022-11-28T21:44:09.348Z,106.70
2022-11-28T21:46:36.211Z,110.87
2022-11-28T21:49:03.011Z,110.90
2022-11-28T21:51:29.900Z,106.27
2022-11-28T21:53:59.409Z,104.73
2022-11-28T21:56:26.226Z,107.57
2022-11-28T21:58:52.924Z,107.07
2022-11-28T22:01:21.245Z,109.57
2022-11-28T22:03:50.450Z,117.23
2022-11-28T22:06:18.215Z,115.97
2022-11-28T22:08:45.347Z,107.07
2022-11-28T22:11:13.488Z,115.90
2022-11-28T22:13:42.387Z,117.53
2022-11-28T22:16:20.770Z,111.80
2022-11-28T22:18:48.381Z,106.93
2022-11-28T22:24:05.286Z,102.50
2022-11-28T22:26:32.061Z,70.70
2022-11-28T22:29:01.426Z,91.17
2022-11-28T22:31:28.339Z,80.83
2022-11-28T22:33:55.488Z,95.17
2022-11-28T22:36:22.614Z,88.60
2022-11-28T22:38:54.536Z,81.30
2022-11-28T22:41:28.496Z,90.97
2022-11-28T22:44:00.912Z,76.05
2022-11-28T22:46:28.744Z,73.80
2022-11-28T22:48:55.743Z,68.83
2022-11-28T22:51:25.175Z,73.77
2022-11-28T22:53:57.295Z,75.23
2022-11-28T22:56:24.812Z,77.83
2022-11-28T22:58:51.812Z,82.00
2022-11-28T23:01:25.106Z,86.00
2022-11-28T23:03:52.671Z,102.23
2022-11-28T23:06:21.956Z,90.37
2022-11-28T23:08:49.364Z,87.23
2022-11-28T23:11:22.985Z,89.83
2022-11-28T23:13:50.954Z,89.60
2022-11-28T23:16:23.254Z,79.20
2022-11-28T23:18:52.802Z,80.97
2022-11-28T23:21:20.478Z,75.10
2022-11-28T23:23:47.579Z,75.83
2022-11-28T23:26:20.479Z,69.27
2022-11-28T23:28:47.302Z,70.30
2022-11-28T23:31:15.239Z,67.20
2022-11-28T23:33:42.800Z,57.17
2022-11-28T23:36:15.438Z,64.07
2022-11-28T23:38:42.664Z,56.47
2022-11-28T23:41:09.722Z,51.00
2022-11-28T23:43:36.420Z,52.83
2022-11-28T23:46:04.579Z,48.60
2022-11-28T23:48:31.362Z,44.60
2022-11-28T23:50:58.329Z,43.67
2022-11-28T23:53:25.227Z,48.10
2022-11-28T23:55:51.959Z,47.17
2022-11-28T23:58:19.299Z,47.83
